Hauptseite
METAR-TAF:

METAR-TAF

Flughäfen :

Fliegerhorst Büchel

Büchel, Deutschland

Breite: 50-10N, Länge: 007-04E, Höhe: 478 m

Beobachtung

Neuester Wetterbericht von vor 1 Stunde und 7 Minuten, um 04:20 UTC
Wind 4 kt aus West
Temperatur 7°C
Luftfeuchtigkeit 87%
Luftdruck 1026 hPa
Sichtweite 10 km oder mehr
Leicht bewölkt in der Höhe von 33000 ft

METAR: ETSB 070420Z 27004KT 9999 FEW330 07/05 Q1026 BLU+BLU+

Zeit: 07:27 (05:27 UTC)

Prognose

Neuester Wetterbericht von vor 1 Stunde und 11 Minuten, um 04:16 UTC
Gültige Prognose vom 07 um 05 UTC bis 07 um 14 UTC
Wind 5 kt aus West
Sichtweite 10 km oder mehr
Aufgelockert bewölkt in der Höhe von 33000 ft

TAF: ETSB 070416Z 0705/0714 26005KT 9999 NSW SCT330 BY ETGL

Wetterbeobachtungen und Prognosen von mehr als 4000 Flughäfen (METAR und TAF Bericht).

Die verfügbaren Stationen werden durch gelbe und rote Markierungen auf der Karte dargestellt.

Führen Sie die Maus auf sie, um den Namen der Station zu sehen.

Darauf klicken, um die Beobachtung von Wetterbeobachtungen und Prognosen zu sehen.

Um die Karte zu ändern : klicken Sie auf den grünen Tasten mit einem schwarzen Kreuz Zum Vergrößern, auf den grünen Button mit einem Gedankenstrich zu verkleinern, oder auf die grünen Pfeile für benachbarte Karten.


METAR-TAF: